Time;durP1;ratioP1;P1;durP2;ratioP2;P2;SDS_P1;SDS_P2;PMS_P1;PMS_P2;Temp;Humidity;BMP_temperature;BMP_pressure;BME280_temperature;BME280_humidity;BME280_pressure;Samples;Min_cycle;Max_cycle;Signal;HPM_P1;HPM_P2
2022/10/08 00:00:15;;;;;;;;;;;;;;;11.84;100.00;100477.91;5000404;28;19941;-77
2022/10/08 00:02:40;;;;;;;;;;;;;;;11.82;100.00;100472.75;5004278;28;19919;-77
2022/10/08 00:05:06;;;;;;;;;;;;;;;11.84;100.00;100473.38;4990360;28;19918;-77
2022/10/08 00:07:31;;;;;;;;;;;;;;;11.88;100.00;100467.72;5016274;28;19947;-77
2022/10/08 00:09:56;;;;;;;;;;;;;;;11.84;100.00;100454.66;5000698;28;19913;-77
2022/10/08 00:12:22;;;;;;;;;;;;;;;11.92;100.00;100455.69;4984700;28;19914;-77
2022/10/08 00:14:47;;;;;;;;;;;;;;;11.91;100.00;100433.41;4999276;28;19928;-76
2022/10/08 00:17:12;;;;;;;;;;;;;;;11.89;100.00;100432.75;4985951;28;19917;-77
2022/10/08 00:19:38;;;;;;;;;;;;;;;11.99;100.00;100437.91;5000826;28;19964;-76
2022/10/08 00:22:03;;;;;;;;;;;;;;;11.93;100.00;100411.84;5002167;28;19918;-77
2022/10/08 00:24:28;;;;;;;;;;;;;;;11.93;100.00;100419.88;5013268;28;20528;-77
2022/10/08 00:26:53;;;;;;;;;;;;;;;11.94;100.00;100422.38;5006333;28;19913;-77
2022/10/08 00:29:19;;;;;;;;;;;;;;;11.90;100.00;100420.25;5004694;28;19917;-76
2022/10/08 00:31:46;;;;;;;;;;;;;;;11.97;100.00;100442.59;5005048;28;20019;-77
2022/10/08 00:34:13;;;;;;;;;;;;;;;11.92;100.00;100431.59;5006392;28;19917;-78
2022/10/08 00:36:39;;;;;;;;;;;;;;;11.92;100.00;100463.69;5006308;28;20019;-77
2022/10/08 00:39:06;;;;;;;;;;;;;;;12.05;100.00;100453.22;5007528;28;20004;-78
2022/10/08 00:41:32;;;;;;;;;;;;;;;11.95;100.00;100428.56;5009746;28;19963;-76
2022/10/08 00:43:59;;;;;;;;;;;;;;;11.90;100.00;100442.47;5008970;28;19913;-76
2022/10/08 00:46:25;;;;;;;;;;;;;;;11.93;100.00;100471.53;5008266;28;20007;-77
2022/10/08 00:49:13;;;;;;;;;;;;;;;11.90;100.00;100449.66;5009718;28;20102;-77
2022/10/08 00:51:43;;;;;;;;;;;;;;;11.84;100.00;100459.19;5019487;28;19967;-76
2022/10/08 00:54:09;;;;;;;;;;;;;;;11.91;100.00;100484.25;5009720;28;19917;-76
2022/10/08 00:56:36;;;;;;;;;;;;;;;11.96;100.00;100489.06;5024986;28;19940;-76
2022/10/08 00:59:02;;;;;;;;;;;;;;;12.06;100.00;100459.38;5009705;28;20016;-77
2022/10/08 01:01:28;;;;;;;;;;;;;;;11.99;100.00;100430.69;4991843;28;20418;-76
2022/10/08 01:03:54;;;;;;;;;;;;;;;12.03;100.00;100415.09;5008180;28;19919;-77
2022/10/08 01:06:28;;;;;;;;;;;;;;;11.94;100.00;100414.34;5008129;28;19913;-77
2022/10/08 01:08:57;;;;;;;;;;;;;;;11.88;100.00;100431.09;5008574;28;19936;-76
2022/10/08 01:11:32;;;;;;;;;;;;;;;11.92;100.00;100467.19;5009147;28;20294;-77
2022/10/08 01:14:15;;;;;;;;;;;;;;;12.04;100.00;100456.91;5006658;28;19935;-77
2022/10/08 01:16:41;;;;;;;;;;;;;;;12.00;100.00;100456.44;5002648;28;19963;-77
2022/10/08 01:19:25;;;;;;;;;;;;;;;11.98;100.00;100468.31;5008189;28;19917;-77
2022/10/08 01:21:50;;;;;;;;;;;;;;;12.03;100.00;100463.25;5009095;28;19919;-77
2022/10/08 01:24:22;;;;;;;;;;;;;;;11.97;100.00;100450.63;5007852;28;19919;-77
2022/10/08 01:26:54;;;;;;;;;;;;;;;11.98;100.00;100446.91;5003546;28;19921;-76
2022/10/08 01:29:21;;;;;;;;;;;;;;;11.94;100.00;100442.94;5009166;28;19917;-78
2022/10/08 01:31:49;;;;;;;;;;;;;;;12.02;100.00;100440.19;5008903;28;19937;-77
2022/10/08 01:34:18;;;;;;;;;;;;;;;11.94;100.00;100410.81;5007838;28;19917;-78
2022/10/08 01:36:46;;;;;;;;;;;;;;;11.88;100.00;100417.72;5024094;28;19913;-75
2022/10/08 01:39:15;;;;;;;;;;;;;;;11.96;100.00;100414.16;4991332;28;20534;-76
2022/10/08 01:41:42;;;;;;;;;;;;;;;11.91;100.00;100405.84;5007598;28;19913;-77
2022/10/08 01:44:12;;;;;;;;;;;;;;;11.97;100.00;100405.97;5007658;28;19920;-77
2022/10/08 01:46:40;;;;;;;;;;;;;;;11.92;100.00;100403.00;5007455;28;20398;-78
2022/10/08 01:49:09;;;;;;;;;;;;;;;11.91;100.00;100400.50;4990767;28;19920;-77
2022/10/08 01:51:44;;;;;;;;;;;;;;;11.89;100.00;100413.22;5006650;28;19936;-77
2022/10/08 01:54:12;;;;;;;;;;;;;;;11.92;100.00;100427.06;4988857;28;19918;-76
2022/10/08 01:56:38;;;;;;;;;;;;;;;11.89;100.00;100439.97;5023663;28;19917;-77
2022/10/08 01:59:24;;;;;;;;;;;;;;;11.94;100.00;100450.94;5008184;28;19921;-78
2022/10/08 02:02:06;;;;;;;;;;;;;;;12.00;100.00;100458.28;5002558;28;19920;-77
2022/10/08 02:04:32;;;;;;;;;;;;;;;12.00;100.00;100463.63;5003894;28;20337;-77
2022/10/08 02:06:58;;;;;;;;;;;;;;;11.95;100.00;100460.66;5002711;28;20028;-77
2022/10/08 02:09:24;;;;;;;;;;;;;;;11.99;100.00;100478.84;5006923;28;19921;-77
2022/10/08 02:11:50;;;;;;;;;;;;;;;11.99;100.00;100486.88;5023602;28;20010;-77
2022/10/08 02:14:15;;;;;;;;;;;;;;;11.99;100.00;100494.09;4990900;28;20033;-77
2022/10/08 02:16:44;;;;;;;;;;;;;;;12.02;100.00;100509.78;5006836;28;20806;-76
2022/10/08 02:19:24;;;;;;;;;;;;;;;12.04;100.00;100489.03;5008237;28;19925;-76
2022/10/08 02:21:51;;;;;;;;;;;;;;;12.10;100.00;100468.72;5007150;28;19913;-77
2022/10/08 02:24:20;;;;;;;;;;;;;;;12.08;100.00;100458.22;5023497;28;19918;-77
2022/10/08 02:26:48;;;;;;;;;;;;;;;12.07;100.00;100461.91;5006574;28;20322;-78
2022/10/08 02:29:24;;;;;;;;;;;;;;;12.05;100.00;100461.25;5006787;28;19968;-78
2022/10/08 02:31:56;;;;;;;;;;;;;;;12.01;100.00;100454.56;5006858;28;20367;-78
2022/10/08 02:34:51;;;;;;;;;;;;;;;11.99;100.00;100468.16;5006786;28;19945;-77
2022/10/08 02:37:20;;;;;;;;;;;;;;;12.01;100.00;100473.31;4989496;28;19948;-78
2022/10/08 02:39:52;;;;;;;;;;;;;;;11.97;100.00;100480.88;5022941;28;19916;-77
2022/10/08 02:42:20;;;;;;;;;;;;;;;11.97;100.00;100486.22;5006066;28;19917;-77
2022/10/08 02:44:56;;;;;;;;;;;;;;;11.93;100.00;100481.41;5006567;28;19917;-76
2022/10/08 02:47:24;;;;;;;;;;;;;;;11.95;100.00;100487.41;5006547;28;20275;-77
2022/10/08 02:49:56;;;;;;;;;;;;;;;11.97;100.00;100496.09;5006612;28;19921;-77
2022/10/08 02:52:22;;;;;;;;;;;;;;;11.95;100.00;100495.44;5022789;28;20851;-78
2022/10/08 02:54:49;;;;;;;;;;;;;;;11.88;100.00;100505.19;5002118;28;20379;-77
2022/10/08 02:57:20;;;;;;;;;;;;;;;11.80;100.00;100514.06;5007483;28;19923;-78
2022/10/08 02:59:45;;;;;;;;;;;;;;;11.87;100.00;100530.22;5005982;28;20252;-77
2022/10/08 03:02:14;;;;;;;;;;;;;;;11.92;100.00;100510.00;5007373;28;19920;-77
2022/10/08 03:04:43;;;;;;;;;;;;;;;11.89;100.00;100493.47;5006667;28;19913;-77
2022/10/08 03:07:09;;;;;;;;;;;;;;;11.86;100.00;100491.94;5006378;28;19909;-77
2022/10/08 03:09:40;;;;;;;;;;;;;;;11.81;100.00;100515.72;5006394;28;19913;-77
2022/10/08 03:12:06;;;;;;;;;;;;;;;11.87;100.00;100554.28;5006064;28;19928;-78
2022/10/08 03:14:38;;;;;;;;;;;;;;;11.78;100.00;100550.84;5006341;28;19917;-77
2022/10/08 03:17:04;;;;;;;;;;;;;;;11.70;100.00;100585.63;5006195;28;19924;-78
2022/10/08 03:19:29;;;;;;;;;;;;;;;11.62;100.00;100653.38;5024159;28;20405;-78
2022/10/08 03:21:55;;;;;;;;;;;;;;;11.45;100.00;100697.16;5009341;28;19964;-77
2022/10/08 03:24:20;;;;;;;;;;;;;;;11.38;100.00;100705.88;4991473;28;19919;-77
2022/10/08 03:26:46;;;;;;;;;;;;;;;11.41;100.00;100715.41;5010471;28;19940;-78
2022/10/08 03:29:11;;;;;;;;;;;;;;;11.20;100.00;100703.38;5008078;28;20003;-78
2022/10/08 03:31:36;;;;;;;;;;;;;;;11.18;100.00;100699.22;5007566;28;19917;-79
2022/10/08 03:34:02;;;;;;;;;;;;;;;11.20;100.00;100689.19;5023685;28;19924;-78
2022/10/08 03:36:27;;;;;;;;;;;;;;;11.19;100.00;100693.72;5006904;28;19909;-77
2022/10/08 03:38:52;;;;;;;;;;;;;;;11.25;100.00;100656.63;5006456;28;19971;-78
2022/10/08 03:41:18;;;;;;;;;;;;;;;11.26;100.00;100628.88;4989625;28;19913;-77
2022/10/08 03:43:44;;;;;;;;;;;;;;;11.28;100.00;100619.69;5006717;28;20294;-77
2022/10/08 03:46:10;;;;;;;;;;;;;;;11.26;100.00;100616.38;5006223;28;20004;-78
2022/10/08 03:48:35;;;;;;;;;;;;;;;11.28;100.00;100602.81;5005861;28;19909;-77
2022/10/08 03:51:02;;;;;;;;;;;;;;;11.29;100.00;100610.69;5007002;28;19913;-78
2022/10/08 03:53:31;;;;;;;;;;;;;;;11.22;100.00;100614.22;5022222;28;19909;-78
2022/10/08 03:55:59;;;;;;;;;;;;;;;11.20;100.00;100601.00;5007078;28;19914;-77
2022/10/08 03:58:24;;;;;;;;;;;;;;;11.28;100.00;100597.47;4989206;28;19922;-77
2022/10/08 04:00:57;;;;;;;;;;;;;;;11.30;100.00;100590.94;5006844;28;19913;-76
2022/10/08 04:03:23;;;;;;;;;;;;;;;11.30;100.00;100596.28;5005487;28;19925;-77
2022/10/08 04:05:48;;;;;;;;;;;;;;;11.31;100.00;100555.22;5006888;28;19914;-77
2022/10/08 04:08:14;;;;;;;;;;;;;;;11.31;100.00;100549.88;5005490;28;19909;-77
2022/10/08 04:10:39;;;;;;;;;;;;;;;11.31;100.00;100551.72;5005309;28;20489;-77
2022/10/08 04:13:04;;;;;;;;;;;;;;;11.24;100.00;100559.59;5007606;28;20004;-77
2022/10/08 04:15:29;;;;;;;;;;;;;;;11.17;100.00;100553.25;5009256;28;19921;-77
2022/10/08 04:17:55;;;;;;;;;;;;;;;11.20;100.00;100569.75;5010349;28;20004;-76
2022/10/08 04:20:20;;;;;;;;;;;;;;;11.15;100.00;100582.81;5010287;28;19913;-76
2022/10/08 04:22:47;;;;;;;;;;;;;;;11.14;100.00;100602.53;5009106;28;20757;-77
2022/10/08 04:25:12;;;;;;;;;;;;;;;11.11;100.00;100618.06;4993363;28;19916;-77
2022/10/08 04:27:38;;;;;;;;;;;;;;;11.13;100.00;100618.72;5026435;28;19913;-77
2022/10/08 04:30:03;;;;;;;;;;;;;;;11.12;100.00;100630.41;5011042;28;20382;-77
2022/10/08 04:32:28;;;;;;;;;;;;;;;11.11;100.00;100640.25;5027103;28;19913;-76
2022/10/08 04:34:54;;;;;;;;;;;;;;;11.07;100.00;100659.47;5028139;28;19921;-77
2022/10/08 04:37:21;;;;;;;;;;;;;;;11.06;100.00;100668.50;5028556;28;20381;-77
2022/10/08 04:39:46;;;;;;;;;;;;;;;10.91;100.00;100666.50;5011486;28;19913;-76
2022/10/08 04:42:11;;;;;;;;;;;;;;;10.87;100.00;100683.00;5010053;28;19914;-76
2022/10/08 04:44:37;;;;;;;;;;;;;;;10.88;100.00;100688.16;5013479;28;19909;-77
2022/10/08 04:47:02;;;;;;;;;;;;;;;10.88;100.00;100674.00;5011683;28;19913;-77
2022/10/08 04:49:28;;;;;;;;;;;;;;;10.88;100.00;100688.16;5003348;28;19966;-76
2022/10/08 04:51:54;;;;;;;;;;;;;;;10.87;100.00;100685.69;5014101;28;19913;-77
2022/10/08 04:54:20;;;;;;;;;;;;;;;10.79;100.00;100678.47;5015909;28;19917;-78
2022/10/08 04:56:45;;;;;;;;;;;;;;;10.73;100.00;100700.53;5013981;28;19914;-78
2022/10/08 04:59:10;;;;;;;;;;;;;;;10.69;100.00;100694.66;5030146;28;20696;-77
2022/10/08 05:01:35;;;;;;;;;;;;;;;10.63;100.00;100689.13;5012603;28;19918;-76
2022/10/08 05:04:01;;;;;;;;;;;;;;;10.63;100.00;100695.34;5010946;28;20444;-77
2022/10/08 05:06:28;;;;;;;;;;;;;;;10.59;100.00;100699.31;5008716;28;19913;-77
2022/10/08 05:08:54;;;;;;;;;;;;;;;10.61;100.00;100689.31;5009132;28;19917;-78
2022/10/08 05:11:22;;;;;;;;;;;;;;;10.61;100.00;100696.50;5010047;28;19917;-78
2022/10/08 05:13:51;;;;;;;;;;;;;;;10.60;100.00;100689.47;4999495;28;19917;-77
2022/10/08 05:16:17;;;;;;;;;;;;;;;10.55;100.00;100690.78;5013465;28;20032;-77
2022/10/08 05:18:42;;;;;;;;;;;;;;;10.55;100.00;100698.81;5026950;28;20048;-78
2022/10/08 05:21:10;;;;;;;;;;;;;;;10.47;100.00;100688.13;5008212;28;20000;-78
2022/10/08 05:23:35;;;;;;;;;;;;;;;10.42;100.00;100687.78;5008940;28;19992;-77
2022/10/08 05:26:01;;;;;;;;;;;;;;;10.42;100.00;100698.47;5008770;28;20489;-78
2022/10/08 05:28:26;;;;;;;;;;;;;;;10.43;100.00;100694.78;5008161;28;20003;-78
2022/10/08 05:30:52;;;;;;;;;;;;;;;10.42;100.00;100692.25;5024733;28;19964;-77
2022/10/08 05:33:17;;;;;;;;;;;;;;;10.40;100.00;100688.94;5025267;28;20004;-77
2022/10/08 05:35:42;;;;;;;;;;;;;;;10.38;100.00;100686.44;5007716;28;19920;-76
2022/10/08 05:38:08;;;;;;;;;;;;;;;10.36;100.00;100693.75;5008048;28;20383;-78
2022/10/08 05:40:33;;;;;;;;;;;;;;;10.42;100.00;100692.25;5007636;28;19974;-77
2022/10/08 05:42:58;;;;;;;;;;;;;;;10.39;100.00;100693.41;5008913;28;19923;-77
2022/10/08 05:45:23;;;;;;;;;;;;;;;10.46;100.00;100697.09;5007407;28;19921;-76
2022/10/08 05:47:49;;;;;;;;;;;;;;;10.49;100.00;100690.63;5008466;28;20000;-76
2022/10/08 05:50:14;;;;;;;;;;;;;;;10.60;100.00;100700.16;4990873;28;19909;-75
2022/10/08 05:52:40;;;;;;;;;;;;;;;10.64;100.00;100690.81;5007292;28;20451;-76
2022/10/08 05:55:06;;;;;;;;;;;;;;;10.64;100.00;100685.50;5010074;28;19913;-77
2022/10/08 05:57:31;;;;;;;;;;;;;;;10.67;100.00;100695.81;4996819;28;20624;-76
2022/10/08 05:59:56;;;;;;;;;;;;;;;10.59;100.00;100704.66;5016737;28;19923;-77
2022/10/08 06:02:21;;;;;;;;;;;;;;;10.56;100.00;100713.00;4996850;28;19913;-77
2022/10/08 06:04:48;;;;;;;;;;;;;;;10.52;100.00;100725.84;5016617;28;19913;-78
2022/10/08 06:07:13;;;;;;;;;;;;;;;10.49;100.00;100725.34;5015416;28;20286;-78
2022/10/08 06:09:38;;;;;;;;;;;;;;;10.48;100.00;100729.81;5017180;28;19917;-79
2022/10/08 06:12:05;;;;;;;;;;;;;;;10.50;100.00;100733.16;5010378;28;19914;-79
2022/10/08 06:14:30;;;;;;;;;;;;;;;10.59;100.00;100730.53;5006568;28;20399;-78
2022/10/08 06:16:56;;;;;;;;;;;;;;;10.58;100.00;100737.69;4989786;28;20011;-79
2022/10/08 06:19:21;;;;;;;;;;;;;;;10.65;100.00;100737.88;4987276;28;19980;-79
2022/10/08 06:21:46;;;;;;;;;;;;;;;10.66;100.00;100732.38;5006271;28;19971;-78
2022/10/08 06:24:12;;;;;;;;;;;;;;;10.76;100.00;100740.25;5009696;28;20393;-78
2022/10/08 06:26:38;;;;;;;;;;;;;;;10.85;100.00;100739.25;5009163;28;19999;-78
2022/10/08 06:29:05;;;;;;;;;;;;;;;10.89;100.00;100753.97;5009402;28;20000;-79
2022/10/08 06:31:30;;;;;;;;;;;;;;;10.87;100.00;100753.28;4992436;28;19915;-79
2022/10/08 06:33:56;;;;;;;;;;;;;;;10.87;100.00;100753.28;5009234;28;19914;-78
2022/10/08 06:36:22;;;;;;;;;;;;;;;10.88;100.00;100762.13;5008759;28;19967;-78
2022/10/08 06:38:58;;;;;;;;;;;;;;;10.93;100.00;100765.13;5024927;28;20008;-77
2022/10/08 06:41:23;;;;;;;;;;;;;;;11.03;100.00;100775.66;5008206;28;20390;-78
2022/10/08 06:43:49;;;;;;;;;;;;;;;10.94;100.00;100773.00;5008039;28;19979;-77
2022/10/08 06:46:14;;;;;;;;;;;;;;;10.99;100.00;100759.97;5007386;28;19913;-78
2022/10/08 06:48:39;;;;;;;;;;;;;;;10.94;100.00;100756.97;5008344;28;19909;-77
2022/10/08 06:51:06;;;;;;;;;;;;;;;10.96;100.00;100749.63;4990184;28;19925;-78
2022/10/08 06:53:32;;;;;;;;;;;;;;;10.95;100.00;100758.63;5016841;28;19920;-77
2022/10/08 06:55:58;;;;;;;;;;;;;;;10.90;100.00;100763.63;4998975;28;19913;-78
2022/10/08 06:58:24;;;;;;;;;;;;;;;10.93;100.00;100762.47;4983291;28;20510;-77
2022/10/08 07:00:49;;;;;;;;;;;;;;;10.98;100.00;100777.03;5000794;28;19924;-77
2022/10/08 07:03:14;;;;;;;;;;;;;;;10.93;100.00;100768.66;5002736;28;19936;-77
2022/10/08 07:05:39;;;;;;;;;;;;;;;11.19;100.00;100781.03;5004673;28;19914;-77
2022/10/08 07:08:05;;;;;;;;;;;;;;;11.29;100.00;100775.56;5022541;28;19913;-77
2022/10/08 07:10:31;;;;;;;;;;;;;;;11.45;100.00;100770.22;5022565;28;19909;-76
2022/10/08 07:12:57;;;;;;;;;;;;;;;11.62;100.00;100773.69;5006347;28;20418;-76
2022/10/08 07:15:22;;;;;;;;;;;;;;;11.74;100.00;100756.28;5005608;28;19949;-77
2022/10/08 07:17:47;;;;;;;;;;;;;;;12.26;100.00;100757.69;4989357;28;20287;-76
2022/10/08 07:20:12;;;;;;;;;;;;;;;12.12;100.00;100729.78;5005570;28;19921;-77
2022/10/08 07:22:38;;;;;;;;;;;;;;;12.05;100.00;100710.09;5005753;28;19917;-76
2022/10/08 07:25:03;;;;;;;;;;;;;;;12.01;100.00;100704.25;5006856;28;19916;-76
2022/10/08 07:27:28;;;;;;;;;;;;;;;11.89;100.00;100691.41;4989244;28;19922;-76
2022/10/08 07:29:54;;;;;;;;;;;;;;;12.11;100.00;100716.59;5005527;28;20397;-76
2022/10/08 07:32:19;;;;;;;;;;;;;;;12.09;100.00;100707.91;5014536;28;19918;-77
2022/10/08 07:34:44;;;;;;;;;;;;;;;11.98;100.00;100709.13;5014464;28;20450;-79
2022/10/08 07:37:09;;;;;;;;;;;;;;;11.79;100.00;100702.28;5006611;28;19964;-78
2022/10/08 07:39:35;;;;;;;;;;;;;;;11.56;100.00;100688.81;5006693;28;19913;-77
2022/10/08 07:42:00;;;;;;;;;;;;;;;11.64;100.00;100704.84;5023281;28;19921;-77
2022/10/08 07:44:26;;;;;;;;;;;;;;;11.75;100.00;100723.22;5006721;28;20333;-77
2022/10/08 07:46:52;;;;;;;;;;;;;;;11.68;100.00;100713.34;5006244;28;19944;-78
2022/10/08 07:49:18;;;;;;;;;;;;;;;11.75;100.00;100741.06;5010710;28;19913;-78
2022/10/08 07:51:43;;;;;;;;;;;;;;;11.69;100.00;100744.44;5010489;28;19920;-77
2022/10/08 07:54:12;;;;;;;;;;;;;;;11.68;100.00;100754.28;5010036;28;19940;-77
2022/10/08 07:56:38;;;;;;;;;;;;;;;11.74;100.00;100763.50;5010157;28;19909;-77
2022/10/08 07:59:04;;;;;;;;;;;;;;;11.99;100.00;100773.16;5009622;28;19914;-78
2022/10/08 08:01:29;;;;;;;;;;;;;;;12.52;100.00;100762.75;5025984;28;19913;-78
2022/10/08 08:03:56;;;;;;;;;;;;;;;12.55;100.00;100716.91;5009453;28;20332;-77
2022/10/08 08:06:22;;;;;;;;;;;;;;;13.79;100.00;100722.97;5009164;28;19924;-77
2022/10/08 08:08:48;;;;;;;;;;;;;;;14.49;100.00;100626.75;5009124;28;19985;-78
2022/10/08 08:11:14;;;;;;;;;;;;;;;15.02;100.00;100527.78;5010093;28;19913;-76
2022/10/08 08:13:40;;;;;;;;;;;;;;;15.71;100.00;100429.22;5010426;28;19925;-77
2022/10/08 08:16:13;;;;;;;;;;;;;;;15.68;100.00;100298.56;5009968;28;19913;-78
2022/10/08 08:18:40;;;;;;;;;;;;;;;16.15;100.00;100250.06;5008695;28;19917;-77
2022/10/08 08:21:07;;;;;;;;;;;;;;;16.14;100.00;100086.88;5022581;28;20402;-77
2022/10/08 08:23:36;;;;;;;;;;;;;;;16.48;100.00;100189.88;5008692;28;20020;-77
2022/10/08 08:26:02;;;;;;;;;;;;;;;16.64;100.00;100108.53;5006520;28;20306;-76
2022/10/08 08:28:28;;;;;;;;;;;;;;;16.43;100.00;100039.63;5024723;28;20384;-76
2022/10/08 08:30:54;;;;;;;;;;;;;;;17.03;100.00;100053.50;5025099;28;20008;-76
2022/10/08 08:33:20;;;;;;;;;;;;;;;16.79;100.00;100025.50;5009803;28;19945;-77
2022/10/08 08:35:54;;;;;;;;;;;;;;;16.28;100.00;100093.00;5009639;28;19963;-77
2022/10/08 08:38:19;;;;;;;;;;;;;;;15.62;100.00;100130.72;5024757;28;19925;-76
2022/10/08 08:40:45;;;;;;;;;;;;;;;15.29;100.00;100245.56;5008094;28;20112;-76
2022/10/08 08:43:10;;;;;;;;;;;;;;;14.43;100.00;100326.72;5024644;28;20402;-76
2022/10/08 08:45:36;;;;;;;;;;;;;;;14.60;100.00;100502.69;5009454;28;19913;-76
2022/10/08 08:48:08;;;;;;;;;;;;;;;14.41;100.00;100560.56;5009396;28;20749;-76
2022/10/08 08:50:35;;;;;;;;;;;;;;;14.17;100.00;100603.91;5008170;28;20310;-77
2022/10/08 08:53:02;;;;;;;;;;;;;;;13.86;100.00;100635.34;5007918;28;20039;-76
2022/10/08 08:55:57;;;;;;;;;;;;;;;13.47;100.00;100692.75;5024262;28;19913;-76
2022/10/08 08:58:22;;;;;;;;;;;;;;;12.43;100.00;100678.13;4991439;28;19917;-77
2022/10/08 09:00:53;;;;;;;;;;;;;;;11.58;100.00;100652.03;5009386;28;19954;-77
2022/10/08 09:03:30;;;;;;;;;;;;;;;11.15;100.00;100614.03;5025236;28;19920;-77
2022/10/08 09:05:58;;;;;;;;;;;;;;;10.69;100.00;100627.09;5020908;28;19917;-78
2022/10/08 09:08:33;;;;;;;;;;;;;;;10.30;100.00;100689.06;4992976;28;19925;-79
2022/10/08 09:11:01;;;;;;;;;;;;;;;10.02;100.00;100765.78;5010088;28;20015;-80
2022/10/08 09:13:29;;;;;;;;;;;;;;;10.14;100.00;100853.41;5009610;28;20446;-78
2022/10/08 09:15:55;;;;;;;;;;;;;;;10.12;100.00;100919.41;5012790;28;19913;-76
2022/10/08 09:18:21;;;;;;;;;;;;;;;10.13;100.00;100949.59;4993700;28;19918;-78
2022/10/08 09:20:46;;;;;;;;;;;;;;;9.99;100.00;100977.63;5008558;28;19913;-77
2022/10/08 09:23:16;;;;;;;;;;;;;;;9.90;100.00;101010.56;5009960;28;19913;-78
2022/10/08 09:25:43;;;;;;;;;;;;;;;9.77;100.00;101028.78;5009075;28;19917;-77
2022/10/08 09:28:08;;;;;;;;;;;;;;;9.74;100.00;101035.25;5008691;28;19917;-77
2022/10/08 09:30:36;;;;;;;;;;;;;;;9.84;100.00;101052.00;5008393;28;20370;-77
2022/10/08 09:33:11;;;;;;;;;;;;;;;10.13;100.00;101064.31;4996890;28;19917;-77
2022/10/08 09:35:40;;;;;;;;;;;;;;;10.86;100.00;101080.13;5018503;28;20381;-78
2022/10/08 09:38:15;;;;;;;;;;;;;;;10.67;100.00;101027.75;5008016;28;20304;-77
2022/10/08 09:40:57;;;;;;;;;;;;;;;10.76;100.00;100994.78;5023856;28;19913;-77
2022/10/08 09:43:22;;;;;;;;;;;;;;;11.41;100.00;101007.63;5008753;28;19914;-78
2022/10/08 09:45:48;;;;;;;;;;;;;;;12.27;100.00;101004.78;5007488;28;19920;-78
2022/10/08 09:48:24;;;;;;;;;;;;;;;12.38;100.00;100959.78;5008865;28;19910;-78
2022/10/08 09:50:51;;;;;;;;;;;;;;;12.40;100.00;100922.97;5009521;28;19917;-78
2022/10/08 09:53:17;;;;;;;;;;;;;;;12.53;100.00;100905.53;5008164;28;19917;-78
2022/10/08 09:55:52;;;;;;;;;;;;;;;12.45;100.00;100847.47;5024315;28;19972;-79
2022/10/08 09:58:18;;;;;;;;;;;;;;;12.57;100.00;100811.28;5007596;28;19922;-78
2022/10/08 10:00:43;;;;;;;;;;;;;;;13.44;100.00;100875.50;5007833;28;19913;-79
2022/10/08 10:03:15;;;;;;;;;;;;;;;13.41;100.00;100714.94;5007710;28;19913;-80
2022/10/08 10:05:41;;;;;;;;;;;;;;;14.04;100.00;100734.25;5008154;28;19913;-79
2022/10/08 10:08:26;;;;;;;;;;;;;;;14.40;100.00;100601.88;5007568;28;19928;-79
2022/10/08 10:10:51;;;;;;;;;;;;;;;14.81;100.00;100581.59;5018028;28;20406;-78
2022/10/08 10:13:19;;;;;;;;;;;;;;;15.15;100.00;100468.72;4990404;28;19909;-78
2022/10/08 10:15:49;;;;;;;;;;;;;;;14.93;100.00;100375.75;5007460;28;19913;-78
2022/10/08 10:18:17;;;;;;;;;;;;;;;15.98;100.00;100514.38;5007002;28;19917;-78
2022/10/08 10:20:49;;;;;;;;;;;;;;;16.37;100.00;100442.75;5006435;28;20404;-79
2022/10/08 10:23:24;;;;;;;;;;;;;;;17.24;100.00;100443.41;5006804;28;20333;-78
2022/10/08 10:25:53;;;;;;;;;;;;;;;16.98;100.00;100090.28;5006993;28;20276;-77
2022/10/08 10:28:32;;;;;;;;;;;;;;;17.54;100.00;99962.47;5006822;28;20387;-78
2022/10/08 10:31:01;;;;;;;;;;;;;;;17.60;100.00;100074.09;4990321;28;20397;-78
2022/10/08 10:33:29;;;;;;;;;;;;;;;17.84;100.00;100086.72;5008380;28;19917;-78
2022/10/08 10:36:00;;;;;;;;;;;;;;;17.34;100.00;100035.53;5006262;28;20366;-77
2022/10/08 10:38:27;;;;;;;;;;;;;;;17.56;100.00;100111.50;5006554;28;19921;-78
2022/10/08 10:41:12;;;;;;;;;;;;;;;18.11;100.00;100178.22;5022666;28;19909;-78
2022/10/08 10:43:47;;;;;;;;;;;;;;;17.92;100.00;99877.66;5006198;28;19920;-78
2022/10/08 10:46:21;;;;;;;;;;;;;;;18.02;100.00;99898.69;5007219;28;19913;-77
2022/10/08 10:48:48;;;;;;;;;;;;;;;18.10;100.00;99696.59;5006196;28;20429;-78
2022/10/08 10:51:20;;;;;;;;;;;;;;;18.94;100.00;99793.47;5007151;28;20023;-77
2022/10/08 10:54:04;;;;;;;;;;;;;;;18.66;100.00;99653.66;5006318;28;20856;-77
2022/10/08 10:56:36;;;;;;;;;;;;;;;18.76;100.00;99677.38;4989280;28;20386;-77
2022/10/08 10:59:21;;;;;;;;;;;;;;;19.00;100.00;99758.41;4989836;28;19936;-77
2022/10/08 11:02:34;;;;;;;;;;;;;;;18.91;100.00;99853.44;5009219;28;19940;-77
2022/10/08 11:05:03;;;;;;;;;;;;;;;19.07;100.00;100025.00;4995290;28;20295;-76
2022/10/08 11:07:43;;;;;;;;;;;;;;;18.00;99.87;99631.56;5006815;28;20414;-77
2022/10/08 11:10:14;;;;;;;;;;;;;;;16.64;100.00;99802.13;4988971;28;19913;-77
2022/10/08 11:12:51;;;;;;;;;;;;;;;16.34;100.00;100039.09;5005319;28;19971;-77
2022/10/08 11:15:19;;;;;;;;;;;;;;;16.00;100.00;100070.75;5006813;28;20453;-76
2022/10/08 11:17:53;;;;;;;;;;;;;;;15.79;100.00;100289.91;5006614;28;20028;-77
2022/10/08 11:20:21;;;;;;;;;;;;;;;17.01;100.00;100438.50;5021879;28;19952;-77
2022/10/08 11:22:53;;;;;;;;;;;;;;;18.59;100.00;100509.06;4987262;28;19917;-77
2022/10/08 11:25:22;;;;;;;;;;;;;;;17.90;100.00;99874.34;4999844;28;20000;-76
2022/10/08 11:28:08;;;;;;;;;;;;;;;16.58;100.00;99802.22;5000732;28;19920;-77
2022/10/08 11:30:52;;;;;;;;;;;;;;;16.58;100.00;100177.59;5015775;28;20028;-77
2022/10/08 11:33:19;;;;;;;;;;;;;;;17.01;100.00;100028.63;5012005;28;19961;-77
2022/10/08 11:36:03;;;;;;;;;;;;;;;16.56;100.00;99882.47;5016368;28;19959;-77
2022/10/08 11:38:34;;;;;;;;;;;;;;;17.50;100.00;100159.09;5001075;28;20028;-77
2022/10/08 11:40:59;;;;;;;;;;;;;;;16.52;100.00;99852.44;4998212;28;19917;-76
2022/10/08 11:43:36;;;;;;;;;;;;;;;16.14;100.00;99976.47;5004412;28;19917;-76
2022/10/08 11:46:31;;;;;;;;;;;;;;;15.96;100.00;99955.66;5016696;28;20388;-77
2022/10/08 11:48:59;;;;;;;;;;;;;;;15.60;100.00;99949.00;4993252;28;19924;-76
2022/10/08 11:51:24;;;;;;;;;;;;;;;15.39;100.00;100037.00;5007256;28;19960;-76
2022/10/08 11:54:09;;;;;;;;;;;;;;;14.93;100.00;100115.03;5020593;28;20022;-76
2022/10/08 11:56:45;;;;;;;;;;;;;;;14.22;100.00;100250.56;4996654;28;19918;-77
2022/10/08 11:59:16;;;;;;;;;;;;;;;14.60;100.00;100545.66;5003068;28;19922;-77
2022/10/08 12:01:49;;;;;;;;;;;;;;;14.74;100.00;100689.88;5004238;28;19923;-77
2022/10/08 12:04:19;;;;;;;;;;;;;;;14.26;100.00;100643.03;4987186;28;19913;-78
2022/10/08 12:06:46;;;;;;;;;;;;;;;14.58;100.00;100773.38;5003609;28;19917;-78
2022/10/08 12:09:35;;;;;;;;;;;;;;;14.66;100.00;100746.44;5002821;28;19918;-78
2022/10/08 12:12:11;;;;;;;;;;;;;;;15.54;100.00;100873.50;5010408;28;20302;-77
2022/10/08 12:14:43;;;;;;;;;;;;;;;16.07;100.00;100848.13;5019937;28;20362;-78
2022/10/08 12:17:09;;;;;;;;;;;;;;;17.01;100.00;100567.97;4999873;28;19921;-78
2022/10/08 12:19:37;;;;;;;;;;;;;;;16.73;100.00;100260.03;5003696;28;19910;-78
2022/10/08 12:22:23;;;;;;;;;;;;;;;15.94;100.00;99869.72;5000832;28;19955;-78
2022/10/08 12:24:53;;;;;;;;;;;;;;;16.86;100.00;100230.34;5004882;28;20290;-77
2022/10/08 12:27:18;;;;;;;;;;;;;;;16.41;100.00;100087.53;5004777;28;20255;-77
2022/10/08 12:29:55;;;;;;;;;;;;;;;17.33;100.00;100398.13;5006977;28;19913;-77
2022/10/08 12:32:24;;;;;;;;;;;;;;;16.69;100.00;99858.03;5004720;28;20217;-77
2022/10/08 12:34:50;;;;;;;;;;;;;;;16.92;100.00;100223.25;5006148;28;20392;-76